Airfield :
LOGIN :

Register | Disclaimer

   EN    FR    IT 

 










Legend :    VFR   Marginal VFR   IFR   Intensive IFR   Very Intensive IFR
Visi :
Ceiling :
>= 8 km
>= 3000ft
5 to 8 km
1000 to 3000 ft
1500m to 5 km
500 to 1000 ft
800 to 1500m
200 to 500 ft
< 800m
< 200 ft
Symbols :   Thunderstorms  Fog  Heavy snow  Heavy precipitations  Wind > 20 kt
SIGMETs :     Misc.  Thunderstorms  Icing  Turbulence  Mountain Waves  Volcanic Ashes






- Airport Elevation : 1300 ft
- IATA code : LIG


LFBL - Limoges

CURRENT METAR :
  • 240530Z AUTO 17011KT 9999 -DZ OVC004 11/11 Q1008 TEMPO 3000 -RA BKN006

EXPIRED METARs :
  • 240500Z AUTO 17009KT 9999 OVC006 11/11 Q1008 TEMPO 0800 FG SCT040CB
  • 240430Z AUTO 17010KT 9999 BKN006 BKN016 BKN032 11/11 Q1008 TEMPO 0800 FG SCT040CB
  • 240400Z AUTO 17011KT 9999 -RA BKN005 BKN020 BKN029 11/11 Q1008 TEMPO 0800 FG SCT040CB
  • 240330Z AUTO 16007KT 130V190 9999 -RA FEW007/// SCT032/// BKN046/// ///TCU 11/11 Q1008 TEMPO 0800 FG SCT040CB
  • 240300Z AUTO 18007KT 9999 -RA ///CB 11/11 Q1007 TEMPO 0800 FG VV///

TAF TAF LFBL
Valid from the 24 at 06:00 until the 25 at 06:00 UTC


240500Z 2406/2506 17009KT 9999 BKN006
TEMPO 2407/2420 3000 -RA OVC003
PROB40
TEMPO 2410/2418 1200 RA OVC002 SCT015CB
TEMPO 2422/2506 2000 BR OVC003
ATIS : +33 5 55 48 40 37



MET'MAP, your aeronautical weather chart ! - Copyright ORBIFLY December 2007 - Disclaimer

ORBIFLY MET'MAP TEAM :

Programming & Development : Alexandra Zaïnal
Concept & Development : Baudouin d'Aumeries
Co-Development & Prog : Marc-Olivier Méhu
Technical & hardware support : Manuel Goepfert

Contact : metmap@orbifly.com




SOURCES & CREDITS :

   NOAA